Time;durP1;ratioP1;P1;durP2;ratioP2;P2;SDS_P1;SDS_P2;PMS_P1;PMS_P2;Temp;Humidity;BMP_temperature;BMP_pressure;BME280_temperature;BME280_humidity;BME280_pressure;Samples;Min_cycle;Max_cycle;Signal;HPM_P1;HPM_P2
2022/03/06 00:01:20;;;;;;;48.22;29.58;;;17.30;45.70;;;;;;4974257;28;95270;-67
2022/03/06 00:03:45;;;;;;;49.92;30.27;;;17.20;45.70;;;;;;4975137;28;95240;-67
2022/03/06 00:06:13;;;;;;;46.00;28.95;;;17.20;45.70;;;;;;4974041;28;92860;-67
2022/03/06 00:08:39;;;;;;;50.22;28.77;;;17.20;45.60;;;;;;4971855;28;92660;-67
2022/03/06 00:11:05;;;;;;;40.50;27.80;;;17.10;45.60;;;;;;4953541;28;95520;-67
2022/03/06 00:13:32;;;;;;;43.83;26.90;;;17.10;45.60;;;;;;4970673;28;103596;-66
2022/03/06 00:15:57;;;;;;;47.25;27.85;;;17.10;45.60;;;;;;4971153;28;92614;-68
2022/03/06 00:18:23;;;;;;;42.00;27.88;;;17.10;45.60;;;;;;4972215;28;91924;-67
2022/03/06 00:20:48;;;;;;;44.65;26.08;;;17.10;45.50;;;;;;4970736;28;93281;-67
2022/03/06 00:23:14;;;;;;;38.05;24.85;;;17.10;45.60;;;;;;4971633;28;93236;-67
2022/03/06 00:25:41;;;;;;;36.13;24.90;;;17.10;45.50;;;;;;4969159;28;95543;-67
2022/03/06 00:28:06;;;;;;;37.88;25.40;;;17.00;45.40;;;;;;4971453;28;92651;-67
2022/03/06 00:30:32;;;;;;;37.20;24.20;;;17.10;45.50;;;;;;4970372;28;103050;-67
2022/03/06 00:32:58;;;;;;;37.33;24.20;;;17.00;45.40;;;;;;4971581;28;93378;-67
2022/03/06 00:35:24;;;;;;;37.20;24.10;;;17.00;45.40;;;;;;4970044;28;92467;-67
2022/03/06 00:37:50;;;;;;;35.42;23.20;;;17.00;45.40;;;;;;4970030;28;92948;-67
2022/03/06 00:40:16;;;;;;;38.20;22.85;;;17.00;45.30;;;;;;4969430;28;92663;-69
2022/03/06 00:42:41;;;;;;;33.45;23.05;;;17.00;45.30;;;;;;4969405;28;93598;-67
2022/03/06 00:45:07;;;;;;;39.03;23.45;;;17.00;45.30;;;;;;4969008;28;96501;-67
2022/03/06 00:47:33;;;;;;;35.55;22.48;;;17.00;45.30;;;;;;4970785;28;92654;-67
2022/03/06 00:49:59;;;;;;;33.03;22.48;;;17.00;45.30;;;;;;4967891;28;101667;-67
2022/03/06 00:52:25;;;;;;;38.10;22.02;;;16.90;45.30;;;;;;4969969;28;97473;-67
2022/03/06 00:54:52;;;;;;;30.08;20.73;;;16.90;45.30;;;;;;4969739;28;92719;-67
2022/03/06 00:57:17;;;;;;;31.05;20.90;;;16.90;45.30;;;;;;4970202;28;92482;-67
2022/03/06 00:59:44;;;;;;;30.10;20.33;;;16.90;45.30;;;;;;4969016;28;99744;-67
2022/03/06 01:02:09;;;;;;;32.08;20.42;;;16.80;45.20;;;;;;4969619;28;92890;-67
2022/03/06 01:04:35;;;;;;;28.45;19.35;;;16.80;45.30;;;;;;4970228;28;96974;-67
2022/03/06 01:07:01;;;;;;;29.75;19.67;;;16.80;45.20;;;;;;4969429;28;93793;-67
2022/03/06 01:09:27;;;;;;;27.58;19.17;;;16.80;45.20;;;;;;4970190;28;93597;-67
2022/03/06 01:11:53;;;;;;;28.90;19.55;;;16.80;45.20;;;;;;4970701;28;93368;-67
2022/03/06 01:14:19;;;;;;;27.00;19.58;;;16.80;45.30;;;;;;4968523;28;95038;-67
2022/03/06 01:16:44;;;;;;;29.00;18.85;;;16.80;45.30;;;;;;4970116;28;92554;-67
2022/03/06 01:19:10;;;;;;;26.85;18.17;;;16.80;45.30;;;;;;4969414;28;94016;-67
2022/03/06 01:21:36;;;;;;;26.25;18.23;;;16.70;45.30;;;;;;4952291;28;93899;-67
2022/03/06 01:24:02;;;;;;;26.10;18.40;;;16.80;45.40;;;;;;4969758;28;92673;-67
2022/03/06 01:26:27;;;;;;;25.25;17.73;;;16.70;45.30;;;;;;4970464;28;93049;-67
2022/03/06 01:28:53;;;;;;;26.30;17.58;;;16.70;45.30;;;;;;4970091;28;94270;-67
2022/03/06 01:31:18;;;;;;;27.70;17.73;;;16.70;45.20;;;;;;4970645;28;92799;-67
2022/03/06 01:33:44;;;;;;;23.90;17.05;;;16.70;45.30;;;;;;4969883;28;92463;-67
2022/03/06 01:36:10;;;;;;;25.05;17.42;;;16.70;45.30;;;;;;4970106;28;93763;-67
2022/03/06 01:38:35;;;;;;;24.40;17.42;;;16.70;45.20;;;;;;4950789;28;96668;-68
2022/03/06 01:41:02;;;;;;;22.42;15.88;;;16.70;45.30;;;;;;4970431;28;95713;-67
2022/03/06 01:43:27;;;;;;;22.85;16.70;;;16.70;45.30;;;;;;4972113;28;92664;-66
2022/03/06 01:45:53;;;;;;;26.20;16.73;;;16.70;45.30;;;;;;4974876;28;93081;-67
2022/03/06 01:48:19;;;;;;;22.02;16.08;;;16.60;45.20;;;;;;4972699;28;94074;-67
2022/03/06 01:50:45;;;;;;;20.92;15.43;;;16.60;45.20;;;;;;4971744;28;93146;-67
2022/03/06 01:53:12;;;;;;;21.75;15.65;;;16.60;46.10;;;;;;4969503;28;92526;-67
2022/03/06 01:55:38;;;;;;;24.92;16.15;;;16.60;45.10;;;;;;4970669;28;92033;-67
2022/03/06 01:58:07;;;;;;;19.20;14.18;;;16.60;45.20;;;;;;4969104;28;94082;-67
2022/03/06 02:00:34;;;;;;;18.63;14.27;;;16.60;45.00;;;;;;4969450;28;92905;-67
2022/03/06 02:03:01;;;;;;;21.77;14.95;;;16.50;45.00;;;;;;4967860;28;95490;-67
2022/03/06 02:05:27;;;;;;;19.95;13.98;;;16.60;45.10;;;;;;4968559;28;92894;-67
2022/03/06 02:07:53;;;;;;;18.88;14.40;;;16.60;45.10;;;;;;4969276;28;93116;-67
2022/03/06 02:10:20;;;;;;;20.00;14.43;;;16.50;45.00;;;;;;4970316;28;93972;-67
2022/03/06 02:12:46;;;;;;;18.70;14.20;;;16.50;44.90;;;;;;4972074;28;92882;-67
2022/03/06 02:15:14;;;;;;;19.17;13.77;;;16.50;45.00;;;;;;4971557;28;92614;-67
2022/03/06 02:17:40;;;;;;;18.88;14.02;;;16.50;45.00;;;;;;4972805;28;94185;-67
2022/03/06 02:20:13;;;;;;;19.02;14.05;;;16.40;44.90;;;;;;4973283;28;92642;-67
2022/03/06 02:22:41;;;;;;;20.98;13.85;;;16.40;44.90;;;;;;4972480;28;92615;-67
2022/03/06 02:25:16;;;;;;;19.05;13.20;;;16.50;45.00;;;;;;4971843;28;93053;-67
2022/03/06 02:27:42;;;;;;;19.35;13.20;;;16.40;44.90;;;;;;4970542;28;94993;-67
2022/03/06 02:30:11;;;;;;;18.55;12.95;;;16.40;44.80;;;;;;4972570;28;96691;-67
2022/03/06 02:32:39;;;;;;;18.55;13.50;;;16.40;44.80;;;;;;4971966;28;92766;-67
2022/03/06 02:35:06;;;;;;;15.52;11.93;;;16.40;44.80;;;;;;4972556;28;92588;-67
2022/03/06 02:37:31;;;;;;;18.08;12.35;;;16.40;44.80;;;;;;4972235;28;93176;-66
2022/03/06 02:40:00;;;;;;;15.43;12.27;;;16.40;44.80;;;;;;4972517;28;93361;-66
2022/03/06 02:42:34;;;;;;;19.58;12.60;;;16.40;44.80;;;;;;4971675;28;92724;-68
2022/03/06 02:45:04;;;;;;;16.13;11.85;;;16.40;44.80;;;;;;4972211;28;91983;-67
2022/03/06 02:47:29;;;;;;;15.30;11.75;;;16.40;44.90;;;;;;4972570;28;95810;-67
2022/03/06 02:49:55;;;;;;;15.98;11.90;;;16.40;45.00;;;;;;4971523;28;102696;-67
2022/03/06 02:52:22;;;;;;;14.75;11.68;;;16.40;45.10;;;;;;4971545;28;95451;-68
2022/03/06 02:54:48;;;;;;;14.02;11.52;;;16.40;45.00;;;;;;4972824;28;92510;-67
2022/03/06 02:57:14;;;;;;;15.80;11.15;;;16.40;45.10;;;;;;4972246;28;92638;-68
2022/03/06 02:59:40;;;;;;;15.27;11.25;;;16.40;45.10;;;;;;4971315;28;94174;-66
2022/03/06 03:02:06;;;;;;;14.57;11.07;;;16.50;45.20;;;;;;4971308;28;92807;-66
2022/03/06 03:04:33;;;;;;;16.85;11.52;;;16.40;45.10;;;;;;4972911;28;92468;-67
2022/03/06 03:06:59;;;;;;;16.42;11.30;;;16.50;45.20;;;;;;4971911;28;94026;-67
2022/03/06 03:09:26;;;;;;;13.35;10.75;;;16.50;45.20;;;;;;4972433;28;93072;-66
2022/03/06 03:11:54;;;;;;;18.50;11.23;;;16.50;45.10;;;;;;4971484;28;92849;-66
2022/03/06 03:14:21;;;;;;;14.63;11.10;;;16.40;45.10;;;;;;4971748;28;92941;-69
2022/03/06 03:16:46;;;;;;;13.35;10.65;;;16.50;45.20;;;;;;4970011;28;95827;-67
2022/03/06 03:19:12;;;;;;;15.57;11.13;;;16.40;45.00;;;;;;4971031;28;95156;-67
2022/03/06 03:21:38;;;;;;;13.95;10.18;;;16.40;45.10;;;;;;4971440;28;92577;-67
2022/03/06 03:24:05;;;;;;;13.93;9.90;;;16.40;45.10;;;;;;4971201;28;93097;-67
2022/03/06 03:26:30;;;;;;;12.68;9.95;;;16.30;45.00;;;;;;4972180;28;93509;-67
2022/03/06 03:28:56;;;;;;;11.88;9.45;;;16.30;45.00;;;;;;4971496;28;92842;-66
2022/03/06 03:31:21;;;;;;;13.23;10.30;;;16.30;45.00;;;;;;4972321;28;93061;-67
2022/03/06 03:33:47;;;;;;;13.55;10.02;;;16.30;45.00;;;;;;4971871;28;92341;-67
2022/03/06 03:36:13;;;;;;;11.00;9.43;;;16.30;45.00;;;;;;4971894;28;93571;-67
2022/03/06 03:38:40;;;;;;;13.98;9.68;;;16.30;45.00;;;;;;4972537;28;94331;-67
2022/03/06 03:41:06;;;;;;;11.90;9.13;;;16.20;45.00;;;;;;4970865;28;95287;-68
2022/03/06 03:43:32;;;;;;;13.18;9.80;;;16.20;44.90;;;;;;4971607;28;92507;-67
2022/03/06 03:45:58;;;;;;;10.98;9.80;;;16.20;45.00;;;;;;4971776;28;93734;-66
2022/03/06 03:48:32;;;;;;;11.38;9.50;;;16.20;44.90;;;;;;4972135;28;92854;-69
2022/03/06 03:50:59;;;;;;;11.50;9.32;;;16.20;44.90;;;;;;4972505;28;92706;-67
2022/03/06 03:53:25;;;;;;;12.68;9.27;;;16.20;44.90;;;;;;4973119;28;93037;-66
2022/03/06 03:55:52;;;;;;;11.93;8.98;;;16.20;44.90;;;;;;4972167;28;92943;-66
2022/03/06 03:58:19;;;;;;;10.85;9.18;;;16.10;44.90;;;;;;4972174;28;92805;-67
2022/03/06 05:44:50;;;;;;;7.32;6.30;;;15.70;44.30;;;;;;3988022;22;93512;-68
2022/03/06 05:47:16;;;;;;;7.78;6.30;;;15.70;44.40;;;;;;4951385;28;92625;-68
2022/03/06 05:49:42;;;;;;;7.63;6.20;;;15.70;44.30;;;;;;4951745;28;92963;-68
2022/03/06 05:52:08;;;;;;;6.85;6.15;;;15.70;44.30;;;;;;4951815;28;93024;-68
2022/03/06 05:54:33;;;;;;;7.00;6.30;;;15.70;44.30;;;;;;4949662;28;95579;-68
2022/03/06 05:56:59;;;;;;;7.63;6.32;;;15.70;44.30;;;;;;4950807;28;93917;-68
2022/03/06 05:59:24;;;;;;;7.22;6.05;;;15.70;44.30;;;;;;4951194;28;92589;-68
2022/03/06 06:01:50;;;;;;;7.90;6.38;;;15.70;44.30;;;;;;4951677;28;92879;-66
2022/03/06 06:04:16;;;;;;;7.95;6.15;;;15.70;44.20;;;;;;4951662;28;93999;-67
2022/03/06 06:06:41;;;;;;;8.85;5.95;;;15.80;44.20;;;;;;4951192;28;93522;-67
2022/03/06 06:09:07;;;;;;;6.32;5.13;;;15.90;44.00;;;;;;4950917;28;92460;-72
2022/03/06 06:11:33;;;;;;;6.20;5.25;;;16.00;43.70;;;;;;4951347;28;92198;-67
2022/03/06 06:13:58;;;;;;;6.30;5.13;;;16.20;43.50;;;;;;4950624;28;93207;-67
2022/03/06 06:16:24;;;;;;;6.15;5.07;;;16.40;43.20;;;;;;4950733;28;92781;-67
2022/03/06 06:18:50;;;;;;;5.38;4.72;;;16.50;42.90;;;;;;4950326;28;95308;-68
2022/03/06 06:21:16;;;;;;;5.22;4.35;;;16.70;42.70;;;;;;4951150;28;92993;-68
2022/03/06 06:23:42;;;;;;;4.95;4.45;;;16.80;42.40;;;;;;4952267;28;93103;-67
2022/03/06 06:26:08;;;;;;;4.88;4.38;;;17.00;42.10;;;;;;4951037;28;93871;-67
2022/03/06 06:28:34;;;;;;;6.57;4.60;;;17.10;41.90;;;;;;4950600;28;92438;-67
2022/03/06 06:31:00;;;;;;;5.47;4.20;;;17.20;41.70;;;;;;4950822;28;92622;-67
2022/03/06 06:33:26;;;;;;;4.13;3.72;;;17.30;41.60;;;;;;4950631;28;94544;-68
2022/03/06 06:35:51;;;;;;;5.18;4.40;;;17.40;41.40;;;;;;4950951;28;92983;-68
2022/03/06 06:38:17;;;;;;;4.75;3.90;;;17.40;41.40;;;;;;4950813;28;92661;-68
2022/03/06 06:40:43;;;;;;;5.05;3.88;;;17.40;41.20;;;;;;4951747;28;92509;-68
2022/03/06 06:43:08;;;;;;;5.55;3.85;;;17.50;41.20;;;;;;4949354;28;95415;-67
2022/03/06 06:45:34;;;;;;;4.72;3.47;;;17.50;41.10;;;;;;4967366;28;95103;-67
2022/03/06 06:48:01;;;;;;;5.50;3.72;;;17.60;41.20;;;;;;4971229;28;92662;-66
2022/03/06 06:50:27;;;;;;;5.32;3.47;;;17.60;41.10;;;;;;4971503;28;92668;-68
2022/03/06 06:52:52;;;;;;;4.63;3.42;;;17.70;41.00;;;;;;4970705;28;92946;-68
2022/03/06 06:55:18;;;;;;;5.13;3.45;;;17.70;41.00;;;;;;4970413;28;96724;-67
2022/03/06 06:57:43;;;;;;;4.05;3.38;;;17.70;40.80;;;;;;4972505;28;92550;-67
2022/03/06 07:00:09;;;;;;;4.50;3.22;;;17.80;40.80;;;;;;4974123;28;91738;-67
2022/03/06 07:02:36;;;;;;;4.00;3.10;;;17.80;40.80;;;;;;4955422;28;93989;-68
2022/03/06 07:05:02;;;;;;;4.20;3.40;;;17.80;40.70;;;;;;4972907;28;93005;-68
2022/03/06 07:07:27;;;;;;;3.70;3.28;;;17.90;40.70;;;;;;4972608;28;95330;-68
2022/03/06 07:09:53;;;;;;;3.47;2.90;;;17.90;40.70;;;;;;4973954;28;93098;-67
2022/03/06 07:12:18;;;;;;;3.85;3.00;;;17.90;40.50;;;;;;4972991;28;106647;-67
2022/03/06 07:14:44;;;;;;;4.25;2.90;;;18.00;40.70;;;;;;4972375;28;102924;-67
2022/03/06 07:17:09;;;;;;;3.53;2.67;;;18.00;41.60;;;;;;4973475;28;92625;-67
2022/03/06 07:19:35;;;;;;;3.47;2.78;;;18.00;40.50;;;;;;4973775;28;93173;-67
2022/03/06 07:22:01;;;;;;;3.67;2.88;;;18.00;40.50;;;;;;4973245;28;92901;-67
2022/03/06 07:24:27;;;;;;;3.83;2.72;;;18.10;40.50;;;;;;4974325;28;92687;-71
2022/03/06 07:26:53;;;;;;;3.47;2.88;;;18.10;40.40;;;;;;4974023;28;93004;-68
2022/03/06 07:29:18;;;;;;;5.40;2.80;;;18.10;40.30;;;;;;4974161;28;92585;-68
2022/03/06 07:56:24;;;;;;;4.00;2.47;;;17.90;41.20;;;;;;2788916;22;104030;-67
2022/03/06 07:58:50;;;;;;;4.25;2.60;;;17.80;41.40;;;;;;4951303;28;95275;-67
2022/03/06 08:01:16;;;;;;;5.78;2.70;;;17.80;41.50;;;;;;4951612;28;92571;-67
2022/03/06 08:03:42;;;;;;;5.07;2.38;;;17.70;41.60;;;;;;4951216;28;93026;-67
2022/03/06 08:06:11;;;;;;;4.30;2.25;;;17.70;41.80;;;;;;4951525;28;93062;-67
2022/03/06 08:08:37;;;;;;;6.80;2.63;;;17.70;41.90;;;;;;4950310;28;92636;-70
2022/03/06 08:11:02;;;;;;;3.33;2.58;;;17.60;42.00;;;;;;4950806;28;92495;-68
2022/03/06 08:13:28;;;;;;;5.53;2.58;;;17.60;42.10;;;;;;4951566;28;93622;-66
2022/03/06 08:15:53;;;;;;;5.50;2.50;;;17.60;42.20;;;;;;4950701;28;94228;-67
2022/03/06 08:18:19;;;;;;;4.28;2.53;;;17.50;42.40;;;;;;4951351;28;92772;-68
2022/03/06 08:20:44;;;;;;;4.15;2.42;;;17.50;42.60;;;;;;4951884;28;92721;-67
2022/03/06 08:23:10;;;;;;;4.05;2.58;;;17.40;42.60;;;;;;4949768;28;95426;-67
2022/03/06 08:25:36;;;;;;;4.35;2.33;;;17.40;42.70;;;;;;4950295;28;96452;-67
2022/03/06 08:28:01;;;;;;;3.22;2.33;;;17.40;42.90;;;;;;4952006;28;93026;-68
2022/03/06 08:30:27;;;;;;;3.47;2.40;;;17.30;42.90;;;;;;4951965;28;92591;-68
2022/03/06 08:32:53;;;;;;;3.05;2.30;;;17.30;42.80;;;;;;4952228;28;94492;-68
2022/03/06 08:35:19;;;;;;;3.72;2.00;;;17.30;42.90;;;;;;4952731;28;93009;-70
2022/03/06 08:37:44;;;;;;;4.35;2.20;;;17.20;42.90;;;;;;4952178;28;92604;-68
2022/03/06 08:40:10;;;;;;;3.00;2.13;;;17.20;42.90;;;;;;4951514;28;92292;-68
2022/03/06 08:42:36;;;;;;;3.83;2.35;;;17.20;43.00;;;;;;4950761;28;94206;-68
2022/03/06 08:45:03;;;;;;;3.75;2.40;;;17.20;43.00;;;;;;4950923;28;95213;-68
2022/03/06 08:47:29;;;;;;;4.57;2.17;;;17.10;42.90;;;;;;4950104;28;95184;-68
2022/03/06 08:49:55;;;;;;;4.35;2.10;;;17.10;43.10;;;;;;4951319;28;92702;-68
2022/03/06 08:52:20;;;;;;;3.70;2.03;;;17.10;43.00;;;;;;4950578;28;93487;-68
2022/03/06 08:54:46;;;;;;;2.90;2.13;;;17.00;43.00;;;;;;4950405;28;93230;-67
2022/03/06 08:57:11;;;;;;;4.03;2.40;;;17.00;43.00;;;;;;4950763;28;92559;-69
2022/03/06 08:59:37;;;;;;;2.72;2.00;;;17.00;43.10;;;;;;4952229;28;92533;-71
2022/03/06 09:02:03;;;;;;;3.67;2.10;;;16.90;43.20;;;;;;4950709;28;93509;-68
2022/03/06 09:04:31;;;;;;;4.88;2.30;;;16.90;43.10;;;;;;4951609;28;94258;-68
2022/03/06 09:06:57;;;;;;;3.45;2.20;;;16.90;43.20;;;;;;4951047;28;92926;-69
2022/03/06 09:09:22;;;;;;;2.42;1.88;;;16.90;43.10;;;;;;4951100;28;92907;-70
2022/03/06 09:11:48;;;;;;;3.15;2.15;;;16.90;43.20;;;;;;4949931;28;95440;-68
2022/03/06 09:14:14;;;;;;;4.80;2.00;;;16.80;43.10;;;;;;4950087;28;103983;-68
2022/03/06 09:16:39;;;;;;;2.13;1.70;;;16.80;43.20;;;;;;4950740;28;92496;-69
2022/03/06 09:19:06;;;;;;;3.53;1.88;;;16.80;43.40;;;;;;4949827;28;93732;-67
2022/03/06 09:21:31;;;;;;;3.05;2.03;;;16.80;43.40;;;;;;4950431;28;94237;-68
2022/03/06 09:23:57;;;;;;;3.67;1.90;;;16.80;43.50;;;;;;4950976;28;92618;-69
2022/03/06 09:26:23;;;;;;;2.70;1.73;;;16.80;43.40;;;;;;4950549;28;95656;-68
2022/03/06 09:28:48;;;;;;;3.45;2.20;;;16.80;43.40;;;;;;4951481;28;92307;-68
2022/03/06 09:31:15;;;;;;;3.83;1.88;;;16.80;43.40;;;;;;4950595;28;93133;-68
2022/03/06 09:33:40;;;;;;;3.25;1.73;;;16.70;43.20;;;;;;4949986;28;92989;-68
2022/03/06 09:36:06;;;;;;;2.75;1.60;;;16.70;43.30;;;;;;4949724;28;95371;-69
2022/03/06 09:38:34;;;;;;;3.17;1.52;;;16.70;43.20;;;;;;4953377;28;92824;-67
2022/03/06 09:41:04;;;;;;;2.35;1.83;;;16.70;43.20;;;;;;4955280;28;93064;-67
2022/03/06 09:43:32;;;;;;;2.80;1.60;;;16.70;43.20;;;;;;4954788;28;93340;-68
2022/03/06 09:46:05;;;;;;;2.97;1.77;;;16.70;43.20;;;;;;4952627;28;92569;-67
2022/03/06 09:48:31;;;;;;;4.00;1.58;;;16.80;43.20;;;;;;4951502;28;92638;-67
2022/03/06 09:50:57;;;;;;;2.67;1.60;;;16.70;43.10;;;;;;4950498;28;96222;-68
2022/03/06 09:53:24;;;;;;;2.22;1.55;;;16.80;43.20;;;;;;4951117;28;93543;-67
2022/03/06 09:55:49;;;;;;;2.75;1.70;;;16.80;43.20;;;;;;4949842;28;92857;-68
2022/03/06 09:58:15;;;;;;;2.58;1.80;;;16.80;43.10;;;;;;4950025;28;93079;-68
2022/03/06 10:00:41;;;;;;;2.58;1.70;;;16.80;43.10;;;;;;4948357;28;101439;-68
2022/03/06 10:03:07;;;;;;;2.08;1.50;;;16.80;43.10;;;;;;4949899;28;97840;-67
2022/03/06 10:05:34;;;;;;;1.50;1.30;;;16.80;43.10;;;;;;4950777;28;92755;-67
2022/03/06 10:08:24;;;;;;;4.00;1.80;;;16.80;43.10;;;;;;4950580;28;93039;-68
2022/03/06 10:10:51;;;;;;;2.05;1.52;;;16.80;43.00;;;;;;4950771;28;94050;-68
2022/03/06 10:13:23;;;;;;;3.63;1.67;;;16.80;43.00;;;;;;4950063;28;93221;-68
2022/03/06 10:15:59;;;;;;;1.60;1.38;;;16.90;43.00;;;;;;4950059;28;92627;-67
2022/03/06 10:18:25;;;;;;;2.80;1.58;;;16.90;42.90;;;;;;4950950;28;91820;-68
2022/03/06 10:20:51;;;;;;;3.00;1.50;;;16.90;42.90;;;;;;4948953;28;94107;-68
2022/03/06 10:23:26;;;;;;;2.30;1.48;;;16.90;42.90;;;;;;4950584;28;93529;-70
2022/03/06 10:26:06;;;;;;;2.83;1.50;;;16.90;42.80;;;;;;4948951;28;94906;-68
2022/03/06 10:28:43;;;;;;;3.33;1.63;;;16.90;42.80;;;;;;4951002;28;92899;-68
2022/03/06 10:31:09;;;;;;;2.50;1.63;;;16.90;42.90;;;;;;4951559;28;93139;-68
2022/03/06 10:33:34;;;;;;;3.22;1.33;;;16.90;42.80;;;;;;4953389;28;92655;-68
2022/03/06 10:36:02;;;;;;;3.55;1.67;;;16.90;42.80;;;;;;4952375;28;92674;-68
2022/03/06 10:38:32;;;;;;;1.98;1.33;;;16.90;42.80;;;;;;4953140;28;92491;-68
2022/03/06 10:41:14;;;;;;;2.42;1.52;;;16.90;42.70;;;;;;4952676;28;93535;-68
2022/03/06 10:43:41;;;;;;;2.40;1.38;;;16.90;42.70;;;;;;4953021;28;92833;-69
2022/03/06 10:46:18;;;;;;;2.33;1.48;;;16.90;42.70;;;;;;4954167;28;93960;-68
2022/03/06 10:48:57;;;;;;;2.05;1.35;;;16.90;42.70;;;;;;4953964;28;92446;-70
2022/03/06 10:51:23;;;;;;;3.03;1.35;;;16.90;42.60;;;;;;4951639;28;95475;-68
2022/03/06 10:53:58;;;;;;;2.75;1.52;;;16.90;42.70;;;;;;4952731;28;95251;-69
2022/03/06 10:56:25;;;;;;;1.88;1.42;;;16.90;42.60;;;;;;4951775;28;93072;-68
2022/03/06 10:58:50;;;;;;;2.22;1.67;;;16.90;42.70;;;;;;4952865;28;92992;-70
2022/03/06 11:01:17;;;;;;;3.72;1.80;;;16.90;42.60;;;;;;4952850;28;94057;-68
2022/03/06 11:03:43;;;;;;;4.15;1.98;;;16.90;42.60;;;;;;4952820;28;93077;-68
2022/03/06 11:06:10;;;;;;;2.22;1.50;;;16.90;42.50;;;;;;4953012;28;93023;-68
2022/03/06 11:08:39;;;;;;;2.35;1.30;;;16.90;42.50;;;;;;4953638;28;92479;-68
2022/03/06 11:11:07;;;;;;;2.63;1.52;;;16.90;43.50;;;;;;4952104;28;93696;-70
2022/03/06 11:13:32;;;;;;;2.85;1.50;;;16.90;42.50;;;;;;4951803;28;93070;-68
2022/03/06 11:15:59;;;;;;;2.15;1.30;;;17.00;42.60;;;;;;4951507;28;95005;-69
2022/03/06 11:18:26;;;;;;;2.30;1.25;;;17.00;42.50;;;;;;4952830;28;92941;-69
2022/03/06 11:20:53;;;;;;;2.67;1.38;;;17.20;42.50;;;;;;4952856;28;93129;-68
2022/03/06 11:23:34;;;;;;;1.73;1.17;;;17.30;42.30;;;;;;4952163;28;93053;-68
2022/03/06 11:26:15;;;;;;;2.97;1.38;;;17.40;42.10;;;;;;4954260;28;93134;-67
2022/03/06 11:29:02;;;;;;;2.40;1.23;;;17.60;43.00;;;;;;4957447;28;92539;-68
2022/03/06 11:31:42;;;;;;;1.48;1.10;;;17.70;41.90;;;;;;4958018;28;92875;-67
2022/03/06 11:34:09;;;;;;;3.05;1.50;;;17.80;41.70;;;;;;4954186;28;93071;-67
2022/03/06 11:36:47;;;;;;;1.70;1.02;;;17.90;41.70;;;;;;4953674;28;93128;-67
2022/03/06 11:39:35;;;;;;;4.07;1.10;;;18.10;41.60;;;;;;4952260;28;92920;-68
2022/03/06 11:42:04;;;;;;;3.28;1.30;;;18.20;41.60;;;;;;4950524;28;95362;-69
2022/03/06 11:44:40;;;;;;;3.90;1.20;;;18.30;42.60;;;;;;4952666;28;95725;-68
2022/03/06 11:47:18;;;;;;;1.27;1.10;;;18.40;41.50;;;;;;4953301;28;92649;-68
2022/03/06 11:49:53;;;;;;;3.35;1.20;;;18.40;41.40;;;;;;4953265;28;92457;-67
2022/03/06 11:52:29;;;;;;;2.42;1.00;;;18.50;41.40;;;;;;4952638;28;94271;-68
2022/03/06 11:54:56;;;;;;;1.85;1.17;;;18.60;41.50;;;;;;4951597;28;94274;-67
2022/03/06 11:57:43;;;;;;;3.55;1.15;;;18.60;41.40;;;;;;4950889;28;92650;-67
2022/03/06 12:00:16;;;;;;;10.30;3.65;;;18.70;41.60;;;;;;4952010;28;92320;-67
2022/03/06 12:02:55;;;;;;;13.27;5.10;;;18.70;41.70;;;;;;4952181;28;93384;-67
2022/03/06 12:05:23;;;;;;;16.58;6.10;;;18.70;41.80;;;;;;4951669;28;93922;-67
2022/03/06 12:07:50;;;;;;;17.05;6.03;;;18.70;41.90;;;;;;4950976;28;94947;-68
2022/03/06 12:10:17;;;;;;;20.63;6.78;;;18.70;42.10;;;;;;4951910;28;92505;-67
2022/03/06 12:12:56;;;;;;;19.30;6.68;;;18.70;42.20;;;;;;4951712;28;94426;-68
2022/03/06 12:15:27;;;;;;;19.08;6.55;;;18.70;42.40;;;;;;4952237;28;93017;-67
2022/03/06 12:17:53;;;;;;;16.92;6.50;;;18.70;42.60;;;;;;4952728;28;92827;-67
2022/03/06 12:20:28;;;;;;;20.42;6.65;;;18.70;42.80;;;;;;4953096;28;92594;-68
2022/03/06 12:22:57;;;;;;;15.25;6.35;;;18.70;42.80;;;;;;4951343;28;94612;-66
2022/03/06 12:25:29;;;;;;;17.08;5.95;;;18.80;42.90;;;;;;4952734;28;94638;-69
2022/03/06 12:28:01;;;;;;;14.50;5.72;;;18.80;42.90;;;;;;4951468;28;93090;-68
2022/03/06 12:30:28;;;;;;;20.10;6.40;;;18.80;43.00;;;;;;4952181;28;92895;-67
2022/03/06 12:32:54;;;;;;;15.95;5.45;;;18.90;43.30;;;;;;4950400;28;95633;-70
2022/03/06 12:35:22;;;;;;;20.45;5.68;;;18.90;43.40;;;;;;4950997;28;94071;-69
2022/03/06 12:37:53;;;;;;;11.18;4.75;;;19.00;43.50;;;;;;4933991;28;93127;-70
2022/03/06 12:40:24;;;;;;;13.32;4.97;;;19.00;43.50;;;;;;4950314;28;92604;-67
2022/03/06 12:43:03;;;;;;;12.65;5.05;;;19.10;43.50;;;;;;4950784;28;92916;-67
2022/03/06 12:45:29;;;;;;;11.60;4.80;;;19.10;43.50;;;;;;4951509;28;93394;-69
2022/03/06 12:47:55;;;;;;;11.55;4.45;;;19.10;43.40;;;;;;4950969;28;92935;-68
2022/03/06 12:50:22;;;;;;;11.50;4.32;;;19.20;43.50;;;;;;4951367;28;92353;-67
2022/03/06 12:52:53;;;;;;;11.30;4.10;;;19.20;43.30;;;;;;4950754;28;93137;-68
2022/03/06 12:55:20;;;;;;;10.10;4.22;;;19.20;43.30;;;;;;4950614;28;93243;-68
2022/03/06 12:57:53;;;;;;;11.85;4.18;;;19.30;43.20;;;;;;4949436;28;94912;-68
2022/03/06 13:00:31;;;;;;;9.75;4.07;;;19.30;43.20;;;;;;4950274;28;93929;-68
2022/03/06 13:03:05;;;;;;;11.57;4.43;;;19.30;43.20;;;;;;4951190;28;93165;-68
2022/03/06 13:05:33;;;;;;;13.32;3.95;;;19.30;43.20;;;;;;4951814;28;92857;-68
2022/03/06 13:07:58;;;;;;;7.70;3.70;;;19.30;43.20;;;;;;4950954;28;92561;-68
2022/03/06 13:10:24;;;;;;;8.48;3.47;;;19.30;43.30;;;;;;4951479;28;92840;-68
2022/03/06 13:12:52;;;;;;;9.55;4.28;;;19.30;43.40;;;;;;4951601;28;92817;-68
2022/03/06 13:15:24;;;;;;;10.55;4.00;;;19.30;43.30;;;;;;4953593;28;93260;-68
2022/03/06 13:18:12;;;;;;;7.18;3.58;;;19.40;43.40;;;;;;4954518;28;92679;-67
2022/03/06 13:20:41;;;;;;;10.52;3.80;;;19.40;43.20;;;;;;4957654;28;92607;-68
2022/03/06 13:23:19;;;;;;;9.30;3.85;;;19.40;43.30;;;;;;4952962;28;95459;-67
2022/03/06 13:25:45;;;;;;;6.90;3.35;;;19.40;43.20;;;;;;4952284;28;95009;-67
2022/03/06 13:28:12;;;;;;;7.43;3.60;;;19.40;43.30;;;;;;4951498;28;92620;-67
2022/03/06 13:30:38;;;;;;;9.75;3.38;;;19.40;43.30;;;;;;4951733;28;92508;-70
2022/03/06 13:33:05;;;;;;;7.07;3.28;;;19.40;43.30;;;;;;4950825;28;93118;-69
2022/03/06 13:35:38;;;;;;;8.30;3.55;;;19.40;43.40;;;;;;4951454;28;92943;-69
2022/03/06 13:38:05;;;;;;;9.70;3.50;;;19.50;43.50;;;;;;4951950;28;92999;-70
2022/03/06 13:40:39;;;;;;;10.55;3.38;;;19.50;43.40;;;;;;4951352;28;92219;-69
2022/03/06 13:43:05;;;;;;;8.55;2.97;;;19.50;43.30;;;;;;4950281;28;92617;-70
2022/03/06 13:45:31;;;;;;;8.65;3.03;;;19.60;43.40;;;;;;4932652;28;95578;-68
2022/03/06 13:48:02;;;;;;;10.02;3.70;;;19.60;43.30;;;;;;4949710;28;95318;-68
2022/03/06 13:50:35;;;;;;;7.97;3.28;;;19.60;43.30;;;;;;4950933;28;93093;-71
2022/03/06 13:53:06;;;;;;;6.75;2.47;;;19.50;43.30;;;;;;4949107;28;94854;-70
2022/03/06 13:55:33;;;;;;;10.30;3.30;;;19.50;43.50;;;;;;4949952;28;93925;-69
2022/03/06 13:58:08;;;;;;;6.35;2.72;;;19.50;43.60;;;;;;4950671;28;92930;-68
2022/03/06 14:00:40;;;;;;;11.60;2.72;;;19.50;43.80;;;;;;4951645;28;92551;-68
2022/03/06 14:03:13;;;;;;;8.73;3.15;;;19.50;43.80;;;;;;4949687;28;94138;-68
2022/03/06 14:05:49;;;;;;;7.15;3.20;;;19.50;43.70;;;;;;4950395;28;92671;-68
2022/03/06 14:08:18;;;;;;;4.63;2.50;;;19.50;43.80;;;;;;4950927;28;92830;-68
2022/03/06 14:10:46;;;;;;;7.07;2.60;;;19.50;43.70;;;;;;4951630;28;92507;-66
2022/03/06 14:13:28;;;;;;;5.15;2.17;;;19.60;43.70;;;;;;4948577;28;96832;-70
2022/03/06 14:16:05;;;;;;;7.13;2.53;;;19.50;43.60;;;;;;4948911;28;95745;-67
2022/03/06 14:18:35;;;;;;;7.60;2.75;;;19.50;43.50;;;;;;4949771;28;92606;-68
2022/03/06 14:21:26;;;;;;;7.35;2.55;;;19.50;43.70;;;;;;4931757;28;92705;-68
2022/03/06 14:23:55;;;;;;;11.48;2.72;;;19.40;43.70;;;;;;4949404;28;93830;-68
2022/03/06 14:26:48;;;;;;;7.03;2.50;;;19.40;43.80;;;;;;4949685;28;93675;-68
2022/03/06 14:29:18;;;;;;;4.70;2.38;;;19.30;43.90;;;;;;4946794;28;92619;-68
2022/03/06 14:31:46;;;;;;;4.40;2.00;;;19.30;44.00;;;;;;4933589;28;92024;-67
2022/03/06 14:34:14;;;;;;;6.25;2.15;;;19.30;44.10;;;;;;4949475;28;94060;-70
2022/03/06 14:36:41;;;;;;;12.10;2.55;;;19.20;44.20;;;;;;4950116;28;94022;-69
2022/03/06 14:39:08;;;;;;;5.07;2.20;;;19.20;44.20;;;;;;4949256;28;95485;-68
2022/03/06 14:41:36;;;;;;;4.97;2.10;;;19.20;44.40;;;;;;4949971;28;92848;-68
2022/03/06 14:44:03;;;;;;;4.10;1.95;;;19.10;44.30;;;;;;4948974;28;94614;-70
2022/03/06 14:46:29;;;;;;;6.40;2.30;;;19.10;44.30;;;;;;4949788;28;95302;-68
2022/03/06 14:48:55;;;;;;;6.20;2.10;;;19.10;44.20;;;;;;4949916;28;92541;-68
2022/03/06 14:51:22;;;;;;;7.45;2.13;;;19.00;44.00;;;;;;4949658;28;92685;-70
2022/03/06 14:53:48;;;;;;;7.88;2.40;;;19.00;44.10;;;;;;4949237;28;96215;-68